This is the latest recevied weather packets stored in our database for station/object K2ATL. If no packets are shown the sender has not sent any weather packets the latest 10 day(s).
| Time | Temp. | Humidity | Pressure | Rain* | Wind** | Luminosity | Snow |
|---|---|---|---|---|---|---|---|
| 1777655790 | 17.22° C | 46% | 1099.3 hPa | 0 mm | - | 446 W/m² | - |
| 1777655487 | 16.67° C | 48% | 1099.3 hPa | 0 mm | - | 427 W/m² | - |
| 1777655184 | 17.22° C | 49% | 1099.2 hPa | 0 mm | - | 389 W/m² | - |
| 1777654881 | 17.22° C | 48% | 1099.2 hPa | 0 mm | - | 412 W/m² | - |
| 1777654579 | 17.22° C | 49% | 1099.2 hPa | 0 mm | - | 424 W/m² | - |
| 1777654276 | 16.11° C | 52% | 1099.4 hPa | 0 mm | - | 416 W/m² | - |
| 1777653974 | 16.67° C | 52% | 1099.3 hPa | 0 mm | - | 392 W/m² | - |
| 1777653670 | 15.56° C | 53% | 1099.3 hPa | 0 mm | - | 377 W/m² | - |
| 1777653367 | 16.11° C | 53% | 1099.6 hPa | 0 mm | - | 332 W/m² | - |
| 1777653064 | 16.67° C | 52% | 1099.3 hPa | 0 mm | - | 356 W/m² | - |
| 1777652760 | 15.56° C | 51% | 1099.3 hPa | 0 mm | - | 419 W/m² | - |
| 1777652457 | 17.78° C | 48% | 1099.4 hPa | 0 mm | - | 357 W/m² | - |
| 1777652154 | 16.67° C | 47% | 1099.2 hPa | 0 mm | - | 444 W/m² | - |
| 1777651850 | 17.22° C | 48% | 1099.6 hPa | 0 mm | - | 385 W/m² | - |
| 1777651548 | 17.22° C | 46% | 1099.3 hPa | 0 mm | - | 315 W/m² | - |
| 1777651245 | 17.22° C | 44% | 1099.5 hPa | 0 mm | - | 318 W/m² | - |
| 1777650941 | 17.78° C | 46% | 1099.6 hPa | 0 mm | - | 398 W/m² | - |
| 1777650639 | 16.11° C | 46% | 1099.5 hPa | 0 mm | - | 407 W/m² | - |
| 1777650336 | 15.56° C | 53% | 1099.4 hPa | 0 mm | - | 463 W/m² | - |
| 1777650033 | 15° C | 51% | 1099.4 hPa | 0 mm | - | 497 W/m² | - |
| 1777649730 | 15° C | 52% | 1099.6 hPa | 0 mm | - | 412 W/m² | - |
| 1777649426 | 15.56° C | 52% | 1099.3 hPa | 0 mm | - | 377 W/m² | - |
| 1777649123 | 16.67° C | 45% | 1099.5 hPa | 0 mm | - | 349 W/m² | - |
| 1777648821 | 16.11° C | 46% | 1099.4 hPa | 0 mm | - | 436 W/m² | - |
| 1777648517 | 15° C | 53% | 1099.5 hPa | 0 mm | - | 519 W/m² | - |
* Rain latest hour (hover to see other rain measurements)
** Current wind speed in m/s (hover to see current wind gust speed)